sensor_id;sensor_type;location;lat;lon;timestamp;pressure;altitude;pressure_sealevel;temperature;humidity
10978;BME280;5542;48.272;10.794;2023-06-24T00:02:00;96633.88;;;18.42;62.40
10978;BME280;5542;48.272;10.794;2023-06-24T00:04:27;96623.22;;;18.42;62.09
10978;BME280;5542;48.272;10.794;2023-06-24T00:06:54;96614.91;;;18.38;62.28
10978;BME280;5542;48.272;10.794;2023-06-24T00:09:24;96604.28;;;18.43;62.02
10978;BME280;5542;48.272;10.794;2023-06-24T00:11:50;96609.03;;;18.36;62.44
10978;BME280;5542;48.272;10.794;2023-06-24T00:14:17;96614.31;;;18.31;62.54
10978;BME280;5542;48.272;10.794;2023-06-24T00:16:45;96611.13;;;18.29;62.55
10978;BME280;5542;48.272;10.794;2023-06-24T00:19:15;96609.00;;;18.31;63.00
10978;BME280;5542;48.272;10.794;2023-06-24T00:21:44;96609.00;;;18.31;62.86
10978;BME280;5542;48.272;10.794;2023-06-24T00:24:10;96611.38;;;18.28;63.03
10978;BME280;5542;48.272;10.794;2023-06-24T00:26:37;96619.94;;;18.35;62.46
10978;BME280;5542;48.272;10.794;2023-06-24T00:29:03;96620.97;;;18.29;62.59
10978;BME280;5542;48.272;10.794;2023-06-24T00:31:30;96624.69;;;18.28;62.99
10978;BME280;5542;48.272;10.794;2023-06-24T00:33:58;96621.47;;;18.26;62.94
10978;BME280;5542;48.272;10.794;2023-06-24T00:36:25;96614.59;;;18.30;62.82
10978;BME280;5542;48.272;10.794;2023-06-24T00:38:51;96611.38;;;18.28;62.92
10978;BME280;5542;48.272;10.794;2023-06-24T00:41:18;96603.94;;;18.30;63.09
10978;BME280;5542;48.272;10.794;2023-06-24T00:43:45;96599.13;;;18.32;62.81
10978;BME280;5542;48.272;10.794;2023-06-24T00:46:12;96602.59;;;18.32;62.76
10978;BME280;5542;48.272;10.794;2023-06-24T00:48:40;96603.94;;;18.30;62.48
10978;BME280;5542;48.272;10.794;2023-06-24T00:51:08;96599.09;;;18.27;62.97
10978;BME280;5542;48.272;10.794;2023-06-24T00:53:35;96597.50;;;18.26;62.95
10978;BME280;5542;48.272;10.794;2023-06-24T00:56:04;96603.91;;;18.25;63.00
10978;BME280;5542;48.272;10.794;2023-06-24T00:58:32;96606.59;;;18.30;62.90
10978;BME280;5542;48.272;10.794;2023-06-24T01:01:02;96603.91;;;18.25;63.03
10978;BME280;5542;48.272;10.794;2023-06-24T01:03:30;96614.81;;;18.23;63.42
10978;BME280;5542;48.272;10.794;2023-06-24T01:05:57;96613.44;;;18.21;63.57
10978;BME280;5542;48.272;10.794;2023-06-24T01:08:25;96614.50;;;18.20;63.90
10978;BME280;5542;48.272;10.794;2023-06-24T01:10:52;96614.50;;;18.20;64.23
10978;BME280;5542;48.272;10.794;2023-06-24T01:13:18;96617.97;;;18.20;64.19
10978;BME280;5542;48.272;10.794;2023-06-24T01:15:45;96611.28;;;18.17;63.68
10978;BME280;5542;48.272;10.794;2023-06-24T01:18:21;96613.94;;;18.17;64.09
10978;BME280;5542;48.272;10.794;2023-06-24T01:20:52;96613.94;;;18.17;63.83
10978;BME280;5542;48.272;10.794;2023-06-24T01:23:55;96604.94;;;18.19;64.10
10978;BME280;5542;48.272;10.794;2023-06-24T01:26:57;96608.13;;;18.21;64.12
10978;BME280;5542;48.272;10.794;2023-06-24T01:29:44;96599.34;;;18.20;64.04
10978;BME280;5542;48.272;10.794;2023-06-24T01:32:19;96603.59;;;18.21;63.56
10978;BME280;5542;48.272;10.794;2023-06-24T01:34:55;96599.88;;;18.22;63.53
10978;BME280;5542;48.272;10.794;2023-06-24T01:37:27;96600.16;;;18.26;63.46
10978;BME280;5542;48.272;10.794;2023-06-24T01:39:57;96593.25;;;18.25;63.17
10978;BME280;5542;48.272;10.794;2023-06-24T01:42:32;96596.19;;;18.23;63.16
10978;BME280;5542;48.272;10.794;2023-06-24T01:45:01;96590.56;;;18.20;63.52
10978;BME280;5542;48.272;10.794;2023-06-24T01:47:29;96594.28;;;18.19;63.54
10978;BME280;5542;48.272;10.794;2023-06-24T01:49:59;96591.34;;;18.20;63.82
10978;BME280;5542;48.272;10.794;2023-06-24T01:52:29;96590.56;;;18.20;63.55
10978;BME280;5542;48.272;10.794;2023-06-24T01:54:58;96578.88;;;18.26;63.46
10978;BME280;5542;48.272;10.794;2023-06-24T01:57:27;96578.31;;;18.19;63.25
10978;BME280;5542;48.272;10.794;2023-06-24T01:59:55;96583.53;;;18.08;63.72
10978;BME280;5542;48.272;10.794;2023-06-24T02:02:24;96588.31;;;18.06;63.91
10978;BME280;5542;48.272;10.794;2023-06-24T02:04:54;96582.00;;;18.17;62.94
10978;BME280;5542;48.272;10.794;2023-06-24T02:07:22;96580.88;;;18.08;63.45
10978;BME280;5542;48.272;10.794;2023-06-24T02:09:51;96573.41;;;18.05;63.68
10978;BME280;5542;48.272;10.794;2023-06-24T02:12:18;96569.69;;;18.06;63.98
10978;BME280;5542;48.272;10.794;2023-06-24T02:14:45;96570.25;;;18.13;63.14
10978;BME280;5542;48.272;10.794;2023-06-24T02:17:14;96564.34;;;18.06;63.17
10978;BME280;5542;48.272;10.794;2023-06-24T02:19:41;96568.31;;;18.04;63.45
10978;BME280;5542;48.272;10.794;2023-06-24T02:22:10;96574.41;;;17.99;64.14
10978;BME280;5542;48.272;10.794;2023-06-24T02:24:37;96565.06;;;17.91;64.61
10978;BME280;5542;48.272;10.794;2023-06-24T02:27:06;96566.38;;;17.94;64.93
10978;BME280;5542;48.272;10.794;2023-06-24T02:29:34;96568.50;;;17.92;63.89
10978;BME280;5542;48.272;10.794;2023-06-24T02:32:02;96568.25;;;17.94;63.65
10978;BME280;5542;48.272;10.794;2023-06-24T02:34:28;96570.63;;;17.90;63.79
10978;BME280;5542;48.272;10.794;2023-06-24T02:36:55;96565.50;;;17.83;65.07
10978;BME280;5542;48.272;10.794;2023-06-24T02:39:23;96570.81;;;17.83;66.54
10978;BME280;5542;48.272;10.794;2023-06-24T02:41:50;96577.91;;;17.73;67.18
10978;BME280;5542;48.272;10.794;2023-06-24T02:44:16;96572.53;;;17.67;67.62
10978;BME280;5542;48.272;10.794;2023-06-24T02:46:43;96570.94;;;17.66;67.56
10978;BME280;5542;48.272;10.794;2023-06-24T02:49:13;96575.91;;;17.58;68.12
10978;BME280;5542;48.272;10.794;2023-06-24T02:51:43;96585.25;;;17.65;68.08
10978;BME280;5542;48.272;10.794;2023-06-24T02:54:10;96578.59;;;17.63;68.14
10978;BME280;5542;48.272;10.794;2023-06-24T02:56:39;96582.06;;;17.63;68.19
10978;BME280;5542;48.272;10.794;2023-06-24T02:59:07;96580.50;;;17.67;67.93
10978;BME280;5542;48.272;10.794;2023-06-24T03:01:34;96583.78;;;17.75;68.18
10978;BME280;5542;48.272;10.794;2023-06-24T03:04:04;96591.69;;;17.70;67.87
10978;BME280;5542;48.272;10.794;2023-06-24T03:06:31;96591.66;;;17.64;68.21
10978;BME280;5542;48.272;10.794;2023-06-24T03:08:58;96596.66;;;17.61;68.01
10978;BME280;5542;48.272;10.794;2023-06-24T03:11:25;96595.63;;;17.62;67.88
10978;BME280;5542;48.272;10.794;2023-06-24T03:13:54;96597.34;;;17.73;66.20
10978;BME280;5542;48.272;10.794;2023-06-24T03:16:21;96598.25;;;17.57;67.12
10978;BME280;5542;48.272;10.794;2023-06-24T03:18:47;96595.94;;;17.71;66.04
10978;BME280;5542;48.272;10.794;2023-06-24T03:21:14;96608.56;;;17.53;66.67
10978;BME280;5542;48.272;10.794;2023-06-24T03:23:41;96603.03;;;17.60;66.46
10978;BME280;5542;48.272;10.794;2023-06-24T03:26:07;96617.56;;;17.47;67.34
10978;BME280;5542;48.272;10.794;2023-06-24T03:28:34;96612.72;;;17.44;67.87
10978;BME280;5542;48.272;10.794;2023-06-24T03:31:02;96619.09;;;17.43;68.34
10978;BME280;5542;48.272;10.794;2023-06-24T03:33:29;96608.38;;;17.33;69.03
10978;BME280;5542;48.272;10.794;2023-06-24T03:35:55;96610.72;;;17.29;69.52
10978;BME280;5542;48.272;10.794;2023-06-24T03:38:22;96602.41;;;17.26;70.05
10978;BME280;5542;48.272;10.794;2023-06-24T03:40:48;96610.19;;;17.32;69.65
10978;BME280;5542;48.272;10.794;2023-06-24T03:43:15;96612.91;;;17.37;69.11
10978;BME280;5542;48.272;10.794;2023-06-24T03:45:42;96610.81;;;17.39;68.41
10978;BME280;5542;48.272;10.794;2023-06-24T03:48:10;96614.47;;;17.33;68.15
10978;BME280;5542;48.272;10.794;2023-06-24T03:50:36;96623.09;;;17.19;68.66
10978;BME280;5542;48.272;10.794;2023-06-24T03:53:03;96619.47;;;17.30;67.78
10978;BME280;5542;48.272;10.794;2023-06-24T03:55:30;96614.59;;;17.22;68.23
10978;BME280;5542;48.272;10.794;2023-06-24T03:57:56;96617.81;;;17.24;68.12
10978;BME280;5542;48.272;10.794;2023-06-24T04:00:23;96620.78;;;17.27;67.93
10978;BME280;5542;48.272;10.794;2023-06-24T04:02:50;96622.69;;;17.32;67.77
10978;BME280;5542;48.272;10.794;2023-06-24T04:05:20;96628.38;;;17.40;67.29
10978;BME280;5542;48.272;10.794;2023-06-24T04:07:47;96620.16;;;17.20;68.24
10978;BME280;5542;48.272;10.794;2023-06-24T04:10:16;96622.41;;;17.28;67.94
10978;BME280;5542;48.272;10.794;2023-06-24T04:12:43;96620.53;;;17.29;67.58
10978;BME280;5542;48.272;10.794;2023-06-24T04:15:10;96624.69;;;17.20;67.23
10978;BME280;5542;48.272;10.794;2023-06-24T04:17:36;96625.16;;;17.17;67.69
10978;BME280;5542;48.272;10.794;2023-06-24T04:20:04;96623.19;;;17.29;66.56
10978;BME280;5542;48.272;10.794;2023-06-24T04:22:34;96627.09;;;17.21;67.03
10978;BME280;5542;48.272;10.794;2023-06-24T04:25:01;96624.44;;;17.21;67.32
10978;BME280;5542;48.272;10.794;2023-06-24T04:27:28;96623.69;;;17.26;67.40
10978;BME280;5542;48.272;10.794;2023-06-24T04:29:54;96631.72;;;17.31;67.82
10978;BME280;5542;48.272;10.794;2023-06-24T04:32:21;96624.22;;;17.28;68.12
10978;BME280;5542;48.272;10.794;2023-06-24T04:34:47;96640.75;;;17.30;68.40
10978;BME280;5542;48.272;10.794;2023-06-24T04:37:14;96642.28;;;17.26;68.70
10978;BME280;5542;48.272;10.794;2023-06-24T04:39:43;96641.91;;;17.17;69.36
10978;BME280;5542;48.272;10.794;2023-06-24T04:42:10;96642.72;;;17.18;69.93
10978;BME280;5542;48.272;10.794;2023-06-24T04:44:37;96641.97;;;17.22;69.94
10978;BME280;5542;48.272;10.794;2023-06-24T04:47:04;96643.03;;;17.21;70.19
10978;BME280;5542;48.272;10.794;2023-06-24T04:49:30;96642.78;;;17.23;70.09
10978;BME280;5542;48.272;10.794;2023-06-24T04:51:59;96646.44;;;17.17;70.33
10978;BME280;5542;48.272;10.794;2023-06-24T04:54:26;96642.19;;;17.15;70.47
10978;BME280;5542;48.272;10.794;2023-06-24T04:56:54;96642.50;;;17.19;70.46
10978;BME280;5542;48.272;10.794;2023-06-24T04:59:22;96645.44;;;17.23;70.48
10978;BME280;5542;48.272;10.794;2023-06-24T05:01:49;96646.31;;;17.28;70.32
10978;BME280;5542;48.272;10.794;2023-06-24T05:04:16;96643.16;;;17.31;70.12
10978;BME280;5542;48.272;10.794;2023-06-24T05:06:42;96641.88;;;17.34;69.63
10978;BME280;5542;48.272;10.794;2023-06-24T05:09:09;96639.69;;;17.31;69.83
10978;BME280;5542;48.272;10.794;2023-06-24T05:11:38;96640.56;;;17.36;69.51
10978;BME280;5542;48.272;10.794;2023-06-24T05:14:06;96646.19;;;17.40;68.86
10978;BME280;5542;48.272;10.794;2023-06-24T05:16:33;96646.44;;;17.38;69.00
10978;BME280;5542;48.272;10.794;2023-06-24T05:19:00;96646.19;;;17.40;68.57
10978;BME280;5542;48.272;10.794;2023-06-24T05:21:26;96651.59;;;17.50;67.83
10978;BME280;5542;48.272;10.794;2023-06-24T05:23:53;96652.97;;;17.53;67.41
10978;BME280;5542;48.272;10.794;2023-06-24T05:26:20;96653.34;;;17.61;67.29
10978;BME280;5542;48.272;10.794;2023-06-24T05:28:46;96650.22;;;17.70;66.04
10978;BME280;5542;48.272;10.794;2023-06-24T05:31:14;96649.94;;;17.66;65.59
10978;BME280;5542;48.272;10.794;2023-06-24T05:33:41;96647.31;;;17.71;65.02
10978;BME280;5542;48.272;10.794;2023-06-24T05:36:08;96659.00;;;17.70;65.80
10978;BME280;5542;48.272;10.794;2023-06-24T05:38:34;96654.25;;;17.72;64.23
10978;BME280;5542;48.272;10.794;2023-06-24T05:41:01;96668.44;;;17.78;65.11
10978;BME280;5542;48.272;10.794;2023-06-24T05:43:27;96671.31;;;18.03;63.78
10978;BME280;5542;48.272;10.794;2023-06-24T05:45:54;96669.16;;;17.95;63.86
10978;BME280;5542;48.272;10.794;2023-06-24T05:48:22;96668.09;;;17.96;64.52
10978;BME280;5542;48.272;10.794;2023-06-24T05:50:49;96665.47;;;18.01;64.70
10978;BME280;5542;48.272;10.794;2023-06-24T05:53:15;96659.69;;;18.09;64.46
10978;BME280;5542;48.272;10.794;2023-06-24T05:55:42;96660.06;;;18.23;63.26
10978;BME280;5542;48.272;10.794;2023-06-24T05:58:08;96661.16;;;18.27;63.51
10978;BME280;5542;48.272;10.794;2023-06-24T06:00:35;96667.38;;;18.38;62.36
10978;BME280;5542;48.272;10.794;2023-06-24T06:03:01;96663.66;;;18.39;62.20
10978;BME280;5542;48.272;10.794;2023-06-24T06:05:29;96670.34;;;18.47;61.81
10978;BME280;5542;48.272;10.794;2023-06-24T06:07:56;96673.00;;;18.47;61.45
10978;BME280;5542;48.272;10.794;2023-06-24T06:10:22;96675.44;;;18.48;62.55
10978;BME280;5542;48.272;10.794;2023-06-24T06:12:49;96665.53;;;18.76;61.20
10978;BME280;5542;48.272;10.794;2023-06-24T06:15:16;96664.72;;;18.75;62.22
10978;BME280;5542;48.272;10.794;2023-06-24T06:17:42;96661.84;;;18.82;61.84
10978;BME280;5542;48.272;10.794;2023-06-24T06:20:10;96661.91;;;18.92;60.84
10978;BME280;5542;48.272;10.794;2023-06-24T06:22:38;96668.03;;;18.92;61.15
10978;BME280;5542;48.272;10.794;2023-06-24T06:25:05;96664.59;;;18.97;61.02
10978;BME280;5542;48.272;10.794;2023-06-24T06:27:32;96669.44;;;19.05;60.76
10978;BME280;5542;48.272;10.794;2023-06-24T06:29:59;96667.63;;;19.16;60.40
10978;BME280;5542;48.272;10.794;2023-06-24T06:32:25;96670.09;;;19.33;59.52
10978;BME280;5542;48.272;10.794;2023-06-24T06:34:52;96666.09;;;19.35;59.81
10978;BME280;5542;48.272;10.794;2023-06-24T06:37:18;96660.00;;;19.45;59.26
10978;BME280;5542;48.272;10.794;2023-06-24T06:39:46;96660.13;;;19.65;58.93
10978;BME280;5542;48.272;10.794;2023-06-24T06:42:13;96659.59;;;19.89;58.14
10978;BME280;5542;48.272;10.794;2023-06-24T06:44:40;96653.47;;;19.99;57.26
10978;BME280;5542;48.272;10.794;2023-06-24T06:47:07;96656.97;;;20.04;56.72
10978;BME280;5542;48.272;10.794;2023-06-24T06:49:33;96656.72;;;20.21;58.37
10978;BME280;5542;48.272;10.794;2023-06-24T06:52:00;96641.72;;;20.45;54.32
10978;BME280;5542;48.272;10.794;2023-06-24T06:54:26;96634.25;;;20.68;53.68
10978;BME280;5542;48.272;10.794;2023-06-24T06:56:54;96636.91;;;20.83;52.68
10978;BME280;5542;48.272;10.794;2023-06-24T06:59:21;96636.06;;;20.98;51.54
10978;BME280;5542;48.272;10.794;2023-06-24T07:01:48;96636.59;;;21.00;51.03
10978;BME280;5542;48.272;10.794;2023-06-24T07:04:15;96629.78;;;21.38;47.25
10978;BME280;5542;48.272;10.794;2023-06-24T07:06:41;96627.84;;;21.49;47.41
10978;BME280;5542;48.272;10.794;2023-06-24T07:09:08;96629.31;;;21.76;48.85
10978;BME280;5542;48.272;10.794;2023-06-24T07:11:34;96628.53;;;22.14;46.56
10978;BME280;5542;48.272;10.794;2023-06-24T07:14:02;96631.69;;;22.21;47.10
10978;BME280;5542;48.272;10.794;2023-06-24T07:16:29;96642.00;;;22.38;49.48
10978;BME280;5542;48.272;10.794;2023-06-24T07:18:55;96640.25;;;22.82;46.73
10978;BME280;5542;48.272;10.794;2023-06-24T07:21:22;96645.56;;;23.16;47.38
10978;BME280;5542;48.272;10.794;2023-06-24T07:23:49;96625.47;;;23.56;43.68
10978;BME280;5542;48.272;10.794;2023-06-24T07:26:15;96636.25;;;23.94;44.19
10978;BME280;5542;48.272;10.794;2023-06-24T07:28:42;96632.53;;;23.90;40.49
10978;BME280;5542;48.272;10.794;2023-06-24T07:31:10;96628.41;;;23.79;44.30
10978;BME280;5542;48.272;10.794;2023-06-24T07:33:37;96638.22;;;24.21;45.14
10978;BME280;5542;48.272;10.794;2023-06-24T07:36:04;96631.13;;;24.76;43.30
10978;BME280;5542;48.272;10.794;2023-06-24T07:38:30;96628.50;;;25.32;42.89
10978;BME280;5542;48.272;10.794;2023-06-24T07:40:57;96622.34;;;25.67;37.84
10978;BME280;5542;48.272;10.794;2023-06-24T07:43:24;96633.84;;;25.59;41.68
10978;BME280;5542;48.272;10.794;2023-06-24T07:45:50;96639.63;;;25.66;41.10
10978;BME280;5542;48.272;10.794;2023-06-24T07:48:18;96630.22;;;25.77;38.16
10978;BME280;5542;48.272;10.794;2023-06-24T07:50:44;96632.31;;;25.67;39.11
10978;BME280;5542;48.272;10.794;2023-06-24T07:53:11;96639.94;;;25.65;40.36
10978;BME280;5542;48.272;10.794;2023-06-24T07:55:38;96637.34;;;25.60;41.85
10978;BME280;5542;48.272;10.794;2023-06-24T07:58:04;96634.94;;;25.58;40.82
10978;BME280;5542;48.272;10.794;2023-06-24T08:00:31;96636.03;;;26.07;38.81
10978;BME280;5542;48.272;10.794;2023-06-24T08:02:57;96631.63;;;25.89;38.04
10978;BME280;5542;48.272;10.794;2023-06-24T08:05:25;96632.22;;;25.86;38.51
10978;BME280;5542;48.272;10.794;2023-06-24T08:07:52;96638.41;;;25.72;39.97
10978;BME280;5542;48.272;10.794;2023-06-24T08:10:19;96627.56;;;25.64;38.76
10978;BME280;5542;48.272;10.794;2023-06-24T08:12:45;96630.06;;;25.46;39.87
10978;BME280;5542;48.272;10.794;2023-06-24T08:15:13;96635.28;;;25.29;39.60
10978;BME280;5542;48.272;10.794;2023-06-24T08:17:40;96636.59;;;25.18;42.76
10978;BME280;5542;48.272;10.794;2023-06-24T08:20:07;96636.97;;;25.25;39.65
10978;BME280;5542;48.272;10.794;2023-06-24T08:22:35;96643.75;;;24.30;40.40
10978;BME280;5542;48.272;10.794;2023-06-24T08:25:02;96642.19;;;23.91;42.14
10978;BME280;5542;48.272;10.794;2023-06-24T08:27:29;96641.31;;;24.14;41.41
10978;BME280;5542;48.272;10.794;2023-06-24T08:29:55;96637.44;;;24.20;41.77
10978;BME280;5542;48.272;10.794;2023-06-24T08:32:22;96640.13;;;24.20;41.65
10978;BME280;5542;48.272;10.794;2023-06-24T08:34:48;96637.81;;;24.65;43.15
10978;BME280;5542;48.272;10.794;2023-06-24T08:37:15;96630.88;;;25.19;41.92
10978;BME280;5542;48.272;10.794;2023-06-24T08:39:43;96627.72;;;25.67;40.05
10978;BME280;5542;48.272;10.794;2023-06-24T08:42:09;96617.47;;;25.69;36.82
10978;BME280;5542;48.272;10.794;2023-06-24T08:44:36;96628.19;;;25.19;38.81
10978;BME280;5542;48.272;10.794;2023-06-24T08:47:03;96630.47;;;25.40;41.51
10978;BME280;5542;48.272;10.794;2023-06-24T08:49:30;96626.75;;;25.63;38.74
10978;BME280;5542;48.272;10.794;2023-06-24T08:52:00;96626.09;;;25.94;39.11
10978;BME280;5542;48.272;10.794;2023-06-24T08:54:28;96620.22;;;26.14;37.25
10978;BME280;5542;48.272;10.794;2023-06-24T08:56:57;96616.84;;;26.53;39.21
10978;BME280;5542;48.272;10.794;2023-06-24T08:59:25;96620.66;;;27.15;38.58
10978;BME280;5542;48.272;10.794;2023-06-24T09:01:52;96611.81;;;27.31;37.27
10978;BME280;5542;48.272;10.794;2023-06-24T09:04:18;96616.28;;;27.53;37.73
10978;BME280;5542;48.272;10.794;2023-06-24T09:06:45;96612.56;;;27.23;35.67
10978;BME280;5542;48.272;10.794;2023-06-24T09:09:18;96615.50;;;27.44;34.87
10978;BME280;5542;48.272;10.794;2023-06-24T09:11:51;96620.09;;;27.04;34.90
10978;BME280;5542;48.272;10.794;2023-06-24T09:14:20;96623.84;;;26.86;36.15
10978;BME280;5542;48.272;10.794;2023-06-24T09:16:54;96615.94;;;26.36;35.33
10978;BME280;5542;48.272;10.794;2023-06-24T09:19:22;96613.19;;;26.49;37.83
10978;BME280;5542;48.272;10.794;2023-06-24T09:21:49;96607.66;;;26.86;36.69
10978;BME280;5542;48.272;10.794;2023-06-24T09:24:17;96598.34;;;27.49;34.22
10978;BME280;5542;48.272;10.794;2023-06-24T09:26:43;96596.47;;;27.75;35.72
10978;BME280;5542;48.272;10.794;2023-06-24T09:29:11;96590.56;;;28.25;32.87
10978;BME280;5542;48.272;10.794;2023-06-24T09:31:47;96599.28;;;27.44;33.32
10978;BME280;5542;48.272;10.794;2023-06-24T09:34:14;96605.13;;;27.38;36.31
10978;BME280;5542;48.272;10.794;2023-06-24T09:36:44;96592.31;;;27.69;35.71
10978;BME280;5542;48.272;10.794;2023-06-24T09:39:11;96601.06;;;28.10;35.75
10978;BME280;5542;48.272;10.794;2023-06-24T09:41:40;96584.22;;;28.21;34.58
10978;BME280;5542;48.272;10.794;2023-06-24T09:44:08;96586.94;;;28.13;31.69
10978;BME280;5542;48.272;10.794;2023-06-24T09:46:37;96585.19;;;27.82;32.17
10978;BME280;5542;48.272;10.794;2023-06-24T09:49:05;96585.13;;;27.47;33.34
10978;BME280;5542;48.272;10.794;2023-06-24T09:51:33;96588.47;;;26.87;33.88
10978;BME280;5542;48.272;10.794;2023-06-24T09:54:05;96596.19;;;26.80;35.10
10978;BME280;5542;48.272;10.794;2023-06-24T09:56:33;96592.44;;;26.59;33.61
10978;BME280;5542;48.272;10.794;2023-06-24T09:59:03;96585.16;;;26.37;33.95
10978;BME280;5542;48.272;10.794;2023-06-24T10:01:30;96585.69;;;26.16;35.67
10978;BME280;5542;48.272;10.794;2023-06-24T10:03:58;96592.84;;;26.21;34.53
10978;BME280;5542;48.272;10.794;2023-06-24T10:06:26;96591.13;;;25.80;33.21
10978;BME280;5542;48.272;10.794;2023-06-24T10:08:53;96584.63;;;25.67;34.39
10978;BME280;5542;48.272;10.794;2023-06-24T10:11:20;96583.03;;;25.66;34.72
10978;BME280;5542;48.272;10.794;2023-06-24T10:13:47;96576.59;;;25.90;33.83
10978;BME280;5542;48.272;10.794;2023-06-24T10:16:14;96571.22;;;25.90;33.69
10978;BME280;5542;48.272;10.794;2023-06-24T10:18:44;96570.84;;;25.83;33.55
10978;BME280;5542;48.272;10.794;2023-06-24T10:21:11;96567.34;;;26.04;35.52
10978;BME280;5542;48.272;10.794;2023-06-24T10:23:51;96562.34;;;25.89;34.53
10978;BME280;5542;48.272;10.794;2023-06-24T10:26:22;96558.91;;;25.97;37.87
10978;BME280;5542;48.272;10.794;2023-06-24T10:29:09;96550.25;;;26.54;36.64
10978;BME280;5542;48.272;10.794;2023-06-24T10:31:52;96545.72;;;27.29;34.85
10978;BME280;5542;48.272;10.794;2023-06-24T10:34:34;96536.19;;;27.57;31.09
10978;BME280;5542;48.272;10.794;2023-06-24T10:37:02;96536.81;;;27.28;32.60
10978;BME280;5542;48.272;10.794;2023-06-24T10:39:45;96525.22;;;27.37;30.69
10978;BME280;5542;48.272;10.794;2023-06-24T10:42:31;96525.88;;;27.51;30.29
10978;BME280;5542;48.272;10.794;2023-06-24T10:44:59;96527.47;;;27.52;30.87
10978;BME280;5542;48.272;10.794;2023-06-24T10:47:28;96526.97;;;27.33;30.80
10978;BME280;5542;48.272;10.794;2023-06-24T10:49:54;96535.00;;;26.98;33.53
10978;BME280;5542;48.272;10.794;2023-06-24T10:52:22;96532.28;;;26.98;32.55
10978;BME280;5542;48.272;10.794;2023-06-24T10:54:51;96526.75;;;27.03;32.63
10978;BME280;5542;48.272;10.794;2023-06-24T10:57:22;96522.06;;;26.77;32.55
10978;BME280;5542;48.272;10.794;2023-06-24T10:59:51;96528.16;;;26.29;33.58
10978;BME280;5542;48.272;10.794;2023-06-24T11:02:19;96516.25;;;26.22;32.98
10978;BME280;5542;48.272;10.794;2023-06-24T11:04:47;96516.31;;;26.70;31.95
10978;BME280;5542;48.272;10.794;2023-06-24T11:07:14;96513.91;;;26.60;34.27
10978;BME280;5542;48.272;10.794;2023-06-24T11:09:41;96502.34;;;26.60;32.96
10978;BME280;5542;48.272;10.794;2023-06-24T11:12:10;96511.63;;;26.45;33.47
10978;BME280;5542;48.272;10.794;2023-06-24T11:14:38;96518.09;;;26.13;34.42
10978;BME280;5542;48.272;10.794;2023-06-24T11:17:06;96506.44;;;25.59;33.77
10978;BME280;5542;48.272;10.794;2023-06-24T11:19:33;96511.63;;;25.33;33.93
10978;BME280;5542;48.272;10.794;2023-06-24T11:22:01;96506.16;;;25.24;34.75
10978;BME280;5542;48.272;10.794;2023-06-24T11:24:28;96500.72;;;25.74;35.91
10978;BME280;5542;48.272;10.794;2023-06-24T11:26:55;96490.91;;;26.32;35.11
10978;BME280;5542;48.272;10.794;2023-06-24T11:29:23;96494.53;;;27.06;34.15
10978;BME280;5542;48.272;10.794;2023-06-24T11:31:50;96483.91;;;27.62;33.34
10978;BME280;5542;48.272;10.794;2023-06-24T11:34:17;96482.00;;;27.89;31.06
10978;BME280;5542;48.272;10.794;2023-06-24T11:36:45;96473.41;;;27.87;31.43
10978;BME280;5542;48.272;10.794;2023-06-24T11:39:20;96469.31;;;27.11;31.48
10978;BME280;5542;48.272;10.794;2023-06-24T11:41:48;96478.00;;;26.11;33.69
10978;BME280;5542;48.272;10.794;2023-06-24T11:44:17;96470.47;;;25.99;33.87
10978;BME280;5542;48.272;10.794;2023-06-24T11:46:45;96474.75;;;26.32;35.08
10978;BME280;5542;48.272;10.794;2023-06-24T11:49:11;96467.16;;;26.73;34.37
10978;BME280;5542;48.272;10.794;2023-06-24T11:51:46;96466.22;;;26.95;31.43
10978;BME280;5542;48.272;10.794;2023-06-24T11:54:15;96457.22;;;27.17;30.63
10978;BME280;5542;48.272;10.794;2023-06-24T11:56:43;96449.72;;;27.05;30.51
10978;BME280;5542;48.272;10.794;2023-06-24T11:59:17;96449.28;;;27.12;30.53
10978;BME280;5542;48.272;10.794;2023-06-24T12:01:49;96452.31;;;27.28;31.83
10978;BME280;5542;48.272;10.794;2023-06-24T12:04:18;96447.03;;;26.97;28.87
10978;BME280;5542;48.272;10.794;2023-06-24T12:06:44;96448.34;;;27.08;30.66
10978;BME280;5542;48.272;10.794;2023-06-24T12:09:11;96438.78;;;27.02;28.72
10978;BME280;5542;48.272;10.794;2023-06-24T12:11:38;96434.31;;;26.97;29.97
10978;BME280;5542;48.272;10.794;2023-06-24T12:14:05;96435.75;;;27.03;31.39
10978;BME280;5542;48.272;10.794;2023-06-24T12:16:32;96440.72;;;27.27;30.38
10978;BME280;5542;48.272;10.794;2023-06-24T12:19:00;96436.56;;;27.39;30.41
10978;BME280;5542;48.272;10.794;2023-06-24T12:21:26;96416.84;;;27.64;29.44
10978;BME280;5542;48.272;10.794;2023-06-24T12:23:53;96420.84;;;27.41;28.69
10978;BME280;5542;48.272;10.794;2023-06-24T12:26:20;96416.81;;;26.77;30.77
10978;BME280;5542;48.272;10.794;2023-06-24T12:28:46;96419.94;;;26.45;30.75
10978;BME280;5542;48.272;10.794;2023-06-24T12:31:13;96429.88;;;26.36;32.06
10978;BME280;5542;48.272;10.794;2023-06-24T12:33:39;96416.69;;;26.91;31.80
10978;BME280;5542;48.272;10.794;2023-06-24T12:36:07;96415.78;;;27.30;29.86
10978;BME280;5542;48.272;10.794;2023-06-24T12:38:34;96410.66;;;27.55;29.95
10978;BME280;5542;48.272;10.794;2023-06-24T12:41:00;96392.38;;;27.52;29.56
10978;BME280;5542;48.272;10.794;2023-06-24T12:43:27;96405.72;;;27.48;30.06
10978;BME280;5542;48.272;10.794;2023-06-24T12:45:53;96397.50;;;27.45;29.88
10978;BME280;5542;48.272;10.794;2023-06-24T12:48:21;96394.47;;;27.55;28.75
10978;BME280;5542;48.272;10.794;2023-06-24T12:50:47;96395.13;;;27.26;29.93
10978;BME280;5542;48.272;10.794;2023-06-24T12:53:19;96403.50;;;26.90;29.76
10978;BME280;5542;48.272;10.794;2023-06-24T12:55:46;96403.00;;;26.70;30.31
10978;BME280;5542;48.272;10.794;2023-06-24T12:58:13;96398.56;;;26.92;30.08
10978;BME280;5542;48.272;10.794;2023-06-24T13:00:39;96385.25;;;26.78;29.92
10978;BME280;5542;48.272;10.794;2023-06-24T13:03:06;96399.53;;;26.96;30.77
10978;BME280;5542;48.272;10.794;2023-06-24T13:05:33;96403.34;;;27.03;30.55